sensor_id;sensor_type;location;lat;lon;timestamp;P1;durP1;ratioP1;P2;durP2;ratioP2
14377;SDS011;7272;53.668;9.578;2023-07-31T00:00:49;5.30;;;3.90;;
14377;SDS011;7272;53.668;9.578;2023-07-31T00:03:50;5.37;;;3.73;;
14377;SDS011;7272;53.668;9.578;2023-07-31T00:06:52;5.65;;;4.20;;
14377;SDS011;7272;53.668;9.578;2023-07-31T00:09:53;5.70;;;4.10;;
14377;SDS011;7272;53.668;9.578;2023-07-31T00:12:56;6.80;;;4.13;;
14377;SDS011;7272;53.668;9.578;2023-07-31T00:15:59;7.30;;;3.73;;
14377;SDS011;7272;53.668;9.578;2023-07-31T00:19:00;6.77;;;3.87;;
14377;SDS011;7272;53.668;9.578;2023-07-31T00:22:02;4.83;;;4.03;;
14377;SDS011;7272;53.668;9.578;2023-07-31T00:25:03;9.10;;;3.83;;
14377;SDS011;7272;53.668;9.578;2023-07-31T00:28:06;6.80;;;4.00;;
14377;SDS011;7272;53.668;9.578;2023-07-31T00:31:07;4.17;;;3.60;;
14377;SDS011;7272;53.668;9.578;2023-07-31T00:34:08;6.70;;;4.60;;
14377;SDS011;7272;53.668;9.578;2023-07-31T00:37:10;5.13;;;3.53;;
14377;SDS011;7272;53.668;9.578;2023-07-31T00:40:11;5.87;;;3.77;;
14377;SDS011;7272;53.668;9.578;2023-07-31T00:43:14;4.37;;;3.57;;
14377;SDS011;7272;53.668;9.578;2023-07-31T00:46:15;6.73;;;3.40;;
14377;SDS011;7272;53.668;9.578;2023-07-31T00:49:16;4.17;;;3.47;;
14377;SDS011;7272;53.668;9.578;2023-07-31T00:52:18;6.15;;;4.22;;
14377;SDS011;7272;53.668;9.578;2023-07-31T00:55:20;6.60;;;4.20;;
14377;SDS011;7272;53.668;9.578;2023-07-31T00:58:22;5.57;;;3.77;;
14377;SDS011;7272;53.668;9.578;2023-07-31T01:01:23;6.63;;;3.17;;
14377;SDS011;7272;53.668;9.578;2023-07-31T01:04:24;4.87;;;3.73;;
14377;SDS011;7272;53.668;9.578;2023-07-31T01:07:29;4.30;;;3.40;;
14377;SDS011;7272;53.668;9.578;2023-07-31T01:10:37;5.47;;;3.40;;
14377;SDS011;7272;53.668;9.578;2023-07-31T01:13:46;4.73;;;3.63;;
14377;SDS011;7272;53.668;9.578;2023-07-31T01:16:48;5.93;;;3.95;;
14377;SDS011;7272;53.668;9.578;2023-07-31T01:19:49;5.17;;;4.13;;
14377;SDS011;7272;53.668;9.578;2023-07-31T01:26:24;5.10;;;3.53;;
14377;SDS011;7272;53.668;9.578;2023-07-31T01:29:35;4.37;;;3.50;;
14377;SDS011;7272;53.668;9.578;2023-07-31T01:32:43;5.00;;;4.00;;
14377;SDS011;7272;53.668;9.578;2023-07-31T01:35:48;5.43;;;3.70;;
14377;SDS011;7272;53.668;9.578;2023-07-31T01:38:50;7.38;;;4.60;;
14377;SDS011;7272;53.668;9.578;2023-07-31T01:41:51;5.07;;;4.10;;
14377;SDS011;7272;53.668;9.578;2023-07-31T01:44:54;5.20;;;3.73;;
14377;SDS011;7272;53.668;9.578;2023-07-31T01:47:55;5.33;;;3.70;;
14377;SDS011;7272;53.668;9.578;2023-07-31T01:51:00;4.37;;;3.97;;
14377;SDS011;7272;53.668;9.578;2023-07-31T01:54:01;5.80;;;3.73;;
14377;SDS011;7272;53.668;9.578;2023-07-31T01:57:03;8.30;;;4.10;;
14377;SDS011;7272;53.668;9.578;2023-07-31T02:00:05;5.33;;;4.03;;
14377;SDS011;7272;53.668;9.578;2023-07-31T02:03:12;6.97;;;4.00;;
14377;SDS011;7272;53.668;9.578;2023-07-31T02:06:13;5.43;;;4.75;;
14377;SDS011;7272;53.668;9.578;2023-07-31T02:09:14;7.47;;;4.50;;
14377;SDS011;7272;53.668;9.578;2023-07-31T02:12:16;6.73;;;4.17;;
14377;SDS011;7272;53.668;9.578;2023-07-31T02:15:17;6.20;;;4.30;;
14377;SDS011;7272;53.668;9.578;2023-07-31T02:18:19;4.60;;;4.20;;
14377;SDS011;7272;53.668;9.578;2023-07-31T02:21:20;6.37;;;4.93;;
14377;SDS011;7272;53.668;9.578;2023-07-31T02:24:21;5.23;;;4.50;;
14377;SDS011;7272;53.668;9.578;2023-07-31T02:27:23;4.83;;;3.90;;
14377;SDS011;7272;53.668;9.578;2023-07-31T02:30:27;7.53;;;5.40;;
14377;SDS011;7272;53.668;9.578;2023-07-31T02:33:28;7.17;;;4.10;;
14377;SDS011;7272;53.668;9.578;2023-07-31T02:36:29;4.63;;;4.10;;
14377;SDS011;7272;53.668;9.578;2023-07-31T02:39:30;5.13;;;4.20;;
14377;SDS011;7272;53.668;9.578;2023-07-31T02:42:32;8.17;;;4.60;;
14377;SDS011;7272;53.668;9.578;2023-07-31T02:45:33;4.60;;;4.20;;
14377;SDS011;7272;53.668;9.578;2023-07-31T02:48:35;5.72;;;4.68;;
14377;SDS011;7272;53.668;9.578;2023-07-31T02:51:36;4.90;;;4.28;;
14377;SDS011;7272;53.668;9.578;2023-07-31T02:54:37;4.37;;;3.97;;
14377;SDS011;7272;53.668;9.578;2023-07-31T02:57:39;5.53;;;4.70;;
14377;SDS011;7272;53.668;9.578;2023-07-31T03:00:41;5.30;;;4.43;;
14377;SDS011;7272;53.668;9.578;2023-07-31T03:03:43;4.37;;;3.97;;
14377;SDS011;7272;53.668;9.578;2023-07-31T03:06:46;6.60;;;4.50;;
14377;SDS011;7272;53.668;9.578;2023-07-31T03:09:47;4.63;;;4.20;;
14377;SDS011;7272;53.668;9.578;2023-07-31T03:12:49;5.70;;;4.82;;
14377;SDS011;7272;53.668;9.578;2023-07-31T03:15:51;4.60;;;4.20;;
14377;SDS011;7272;53.668;9.578;2023-07-31T03:18:52;4.47;;;4.07;;
14377;SDS011;7272;53.668;9.578;2023-07-31T03:21:53;4.40;;;4.00;;
14377;SDS011;7272;53.668;9.578;2023-07-31T03:24:54;4.87;;;4.40;;
14377;SDS011;7272;53.668;9.578;2023-07-31T03:27:56;6.10;;;4.90;;
14377;SDS011;7272;53.668;9.578;2023-07-31T03:30:57;4.53;;;4.23;;
14377;SDS011;7272;53.668;9.578;2023-07-31T03:33:58;4.60;;;4.30;;
14377;SDS011;7272;53.668;9.578;2023-07-31T03:36:59;4.77;;;4.37;;
14377;SDS011;7272;53.668;9.578;2023-07-31T03:40:00;4.70;;;4.07;;
14377;SDS011;7272;53.668;9.578;2023-07-31T03:43:05;5.40;;;5.00;;
14377;SDS011;7272;53.668;9.578;2023-07-31T03:46:07;4.03;;;3.77;;
14377;SDS011;7272;53.668;9.578;2023-07-31T03:49:08;5.07;;;4.67;;
14377;SDS011;7272;53.668;9.578;2023-07-31T03:52:09;4.90;;;4.50;;
14377;SDS011;7272;53.668;9.578;2023-07-31T03:55:10;8.47;;;4.90;;
14377;SDS011;7272;53.668;9.578;2023-07-31T03:58:12;4.77;;;4.47;;
14377;SDS011;7272;53.668;9.578;2023-07-31T04:01:13;6.28;;;5.68;;
14377;SDS011;7272;53.668;9.578;2023-07-31T04:04:14;6.30;;;5.72;;
14377;SDS011;7272;53.668;9.578;2023-07-31T04:07:15;10.57;;;5.70;;
14377;SDS011;7272;53.668;9.578;2023-07-31T04:10:17;5.47;;;5.07;;
14377;SDS011;7272;53.668;9.578;2023-07-31T04:13:18;5.20;;;4.80;;
14377;SDS011;7272;53.668;9.578;2023-07-31T04:16:20;5.13;;;4.80;;
14377;SDS011;7272;53.668;9.578;2023-07-31T04:19:21;6.07;;;5.57;;
14377;SDS011;7272;53.668;9.578;2023-07-31T04:22:22;6.00;;;5.50;;
14377;SDS011;7272;53.668;9.578;2023-07-31T04:25:23;5.93;;;5.43;;
14377;SDS011;7272;53.668;9.578;2023-07-31T04:28:25;7.10;;;6.60;;
14377;SDS011;7272;53.668;9.578;2023-07-31T04:31:26;6.15;;;5.75;;
14377;SDS011;7272;53.668;9.578;2023-07-31T04:34:28;5.03;;;4.73;;
14377;SDS011;7272;53.668;9.578;2023-07-31T04:37:29;4.90;;;4.60;;
14377;SDS011;7272;53.668;9.578;2023-07-31T04:40:31;4.40;;;4.10;;
14377;SDS011;7272;53.668;9.578;2023-07-31T04:43:33;4.13;;;3.83;;
14377;SDS011;7272;53.668;9.578;2023-07-31T04:46:34;4.10;;;3.90;;
14377;SDS011;7272;53.668;9.578;2023-07-31T04:49:35;4.57;;;4.10;;
14377;SDS011;7272;53.668;9.578;2023-07-31T04:52:37;4.85;;;4.55;;
14377;SDS011;7272;53.668;9.578;2023-07-31T04:55:38;4.70;;;4.50;;
14377;SDS011;7272;53.668;9.578;2023-07-31T04:58:39;3.73;;;3.53;;
14377;SDS011;7272;53.668;9.578;2023-07-31T05:01:41;3.93;;;3.73;;
14377;SDS011;7272;53.668;9.578;2023-07-31T05:04:43;4.40;;;4.00;;
14377;SDS011;7272;53.668;9.578;2023-07-31T05:07:44;3.97;;;3.77;;
14377;SDS011;7272;53.668;9.578;2023-07-31T05:10:45;3.70;;;3.50;;
14377;SDS011;7272;53.668;9.578;2023-07-31T05:13:47;4.63;;;4.00;;
14377;SDS011;7272;53.668;9.578;2023-07-31T05:16:48;5.35;;;4.95;;
14377;SDS011;7272;53.668;9.578;2023-07-31T05:19:49;5.40;;;5.00;;
14377;SDS011;7272;53.668;9.578;2023-07-31T05:22:50;4.17;;;3.97;;
14377;SDS011;7272;53.668;9.578;2023-07-31T05:25:51;4.23;;;4.03;;
14377;SDS011;7272;53.668;9.578;2023-07-31T05:28:53;4.60;;;4.30;;
14377;SDS011;7272;53.668;9.578;2023-07-31T05:31:54;4.23;;;4.00;;
14377;SDS011;7272;53.668;9.578;2023-07-31T05:34:55;4.30;;;4.07;;
14377;SDS011;7272;53.668;9.578;2023-07-31T05:37:57;4.33;;;4.13;;
14377;SDS011;7272;53.668;9.578;2023-07-31T05:40:58;5.60;;;5.30;;
14377;SDS011;7272;53.668;9.578;2023-07-31T05:44:00;5.80;;;5.30;;
14377;SDS011;7272;53.668;9.578;2023-07-31T05:47:01;4.57;;;4.37;;
14377;SDS011;7272;53.668;9.578;2023-07-31T05:50:02;5.00;;;4.70;;
14377;SDS011;7272;53.668;9.578;2023-07-31T05:53:04;7.23;;;5.10;;
14377;SDS011;7272;53.668;9.578;2023-07-31T05:56:05;4.67;;;4.37;;
14377;SDS011;7272;53.668;9.578;2023-07-31T05:59:08;5.07;;;4.77;;
14377;SDS011;7272;53.668;9.578;2023-07-31T06:02:09;4.80;;;4.50;;
14377;SDS011;7272;53.668;9.578;2023-07-31T06:05:10;5.23;;;4.93;;
14377;SDS011;7272;53.668;9.578;2023-07-31T06:08:11;4.63;;;4.43;;
14377;SDS011;7272;53.668;9.578;2023-07-31T06:11:13;4.80;;;4.50;;
14377;SDS011;7272;53.668;9.578;2023-07-31T06:14:14;4.40;;;4.10;;
14377;SDS011;7272;53.668;9.578;2023-07-31T06:17:15;4.30;;;4.10;;
14377;SDS011;7272;53.668;9.578;2023-07-31T06:20:17;4.83;;;4.53;;
14377;SDS011;7272;53.668;9.578;2023-07-31T06:23:18;4.50;;;4.20;;
14377;SDS011;7272;53.668;9.578;2023-07-31T06:26:19;5.47;;;5.18;;
14377;SDS011;7272;53.668;9.578;2023-07-31T06:29:21;5.55;;;5.15;;
14377;SDS011;7272;53.668;9.578;2023-07-31T06:32:22;4.13;;;3.93;;
14377;SDS011;7272;53.668;9.578;2023-07-31T06:35:23;4.27;;;3.97;;
14377;SDS011;7272;53.668;9.578;2023-07-31T06:38:25;4.53;;;4.13;;
14377;SDS011;7272;53.668;9.578;2023-07-31T06:41:27;4.53;;;4.17;;
14377;SDS011;7272;53.668;9.578;2023-07-31T06:44:29;4.53;;;4.33;;
14377;SDS011;7272;53.668;9.578;2023-07-31T06:47:30;4.80;;;4.53;;
14377;SDS011;7272;53.668;9.578;2023-07-31T06:50:32;5.40;;;5.00;;
14377;SDS011;7272;53.668;9.578;2023-07-31T06:53:33;6.30;;;5.93;;
14377;SDS011;7272;53.668;9.578;2023-07-31T06:56:34;4.90;;;4.60;;
14377;SDS011;7272;53.668;9.578;2023-07-31T06:59:36;5.07;;;4.77;;
14377;SDS011;7272;53.668;9.578;2023-07-31T07:02:38;5.23;;;4.87;;
14377;SDS011;7272;53.668;9.578;2023-07-31T07:05:39;5.43;;;5.03;;
14377;SDS011;7272;53.668;9.578;2023-07-31T07:08:41;5.47;;;5.17;;
14377;SDS011;7272;53.668;9.578;2023-07-31T07:11:42;6.20;;;5.90;;
14377;SDS011;7272;53.668;9.578;2023-07-31T07:14:44;6.70;;;6.30;;
14377;SDS011;7272;53.668;9.578;2023-07-31T07:17:46;5.63;;;5.10;;
14377;SDS011;7272;53.668;9.578;2023-07-31T07:20:47;5.17;;;4.87;;
14377;SDS011;7272;53.668;9.578;2023-07-31T07:23:50;5.40;;;5.00;;
14377;SDS011;7272;53.668;9.578;2023-07-31T07:26:51;4.87;;;4.57;;
14377;SDS011;7272;53.668;9.578;2023-07-31T07:29:53;5.47;;;5.17;;
14377;SDS011;7272;53.668;9.578;2023-07-31T07:32:54;4.67;;;4.37;;
14377;SDS011;7272;53.668;9.578;2023-07-31T07:35:55;5.70;;;5.30;;
14377;SDS011;7272;53.668;9.578;2023-07-31T07:39:00;5.50;;;5.20;;
14377;SDS011;7272;53.668;9.578;2023-07-31T07:42:01;4.87;;;4.57;;
14377;SDS011;7272;53.668;9.578;2023-07-31T07:45:03;4.53;;;4.30;;
14377;SDS011;7272;53.668;9.578;2023-07-31T07:48:05;4.57;;;4.20;;
14377;SDS011;7272;53.668;9.578;2023-07-31T07:51:07;4.77;;;4.47;;
14377;SDS011;7272;53.668;9.578;2023-07-31T07:54:08;4.43;;;4.23;;
14377;SDS011;7272;53.668;9.578;2023-07-31T07:57:09;5.85;;;5.53;;
14377;SDS011;7272;53.668;9.578;2023-07-31T08:00:11;5.80;;;5.45;;
14377;SDS011;7272;53.668;9.578;2023-07-31T08:03:16;4.80;;;4.50;;
14377;SDS011;7272;53.668;9.578;2023-07-31T08:06:18;5.20;;;4.90;;
14377;SDS011;7272;53.668;9.578;2023-07-31T08:09:19;4.60;;;4.30;;
14377;SDS011;7272;53.668;9.578;2023-07-31T08:12:20;4.33;;;4.03;;
14377;SDS011;7272;53.668;9.578;2023-07-31T08:15:22;4.53;;;4.33;;
14377;SDS011;7272;53.668;9.578;2023-07-31T08:18:23;4.85;;;4.45;;
14377;SDS011;7272;53.668;9.578;2023-07-31T08:21:24;5.03;;;4.63;;
14377;SDS011;7272;53.668;9.578;2023-07-31T08:24:25;4.50;;;4.20;;
14377;SDS011;7272;53.668;9.578;2023-07-31T08:27:27;4.17;;;3.97;;
14377;SDS011;7272;53.668;9.578;2023-07-31T08:30:28;4.53;;;4.27;;
14377;SDS011;7272;53.668;9.578;2023-07-31T08:33:30;3.73;;;3.53;;
14377;SDS011;7272;53.668;9.578;2023-07-31T08:36:31;3.63;;;3.43;;
14377;SDS011;7272;53.668;9.578;2023-07-31T08:39:33;3.60;;;3.40;;
14377;SDS011;7272;53.668;9.578;2023-07-31T08:42:34;4.43;;;4.22;;
14377;SDS011;7272;53.668;9.578;2023-07-31T08:45:43;4.20;;;4.00;;
14377;SDS011;7272;53.668;9.578;2023-07-31T08:48:45;3.63;;;3.43;;
14377;SDS011;7272;53.668;9.578;2023-07-31T08:51:48;3.20;;;3.10;;
14377;SDS011;7272;53.668;9.578;2023-07-31T08:54:51;3.30;;;2.90;;
14377;SDS011;7272;53.668;9.578;2023-07-31T08:57:52;3.33;;;3.13;;
14377;SDS011;7272;53.668;9.578;2023-07-31T09:00:54;3.43;;;3.17;;
14377;SDS011;7272;53.668;9.578;2023-07-31T09:03:57;3.37;;;3.17;;
14377;SDS011;7272;53.668;9.578;2023-07-31T09:07:02;4.10;;;3.90;;
14377;SDS011;7272;53.668;9.578;2023-07-31T09:10:04;3.23;;;3.03;;
14377;SDS011;7272;53.668;9.578;2023-07-31T09:13:06;2.60;;;2.50;;
14377;SDS011;7272;53.668;9.578;2023-07-31T09:16:08;2.43;;;2.33;;
14377;SDS011;7272;53.668;9.578;2023-07-31T09:19:10;2.40;;;2.30;;
14377;SDS011;7272;53.668;9.578;2023-07-31T09:22:11;2.10;;;2.00;;
14377;SDS011;7272;53.668;9.578;2023-07-31T09:25:16;3.05;;;2.85;;
14377;SDS011;7272;53.668;9.578;2023-07-31T09:28:20;2.50;;;2.40;;
14377;SDS011;7272;53.668;9.578;2023-07-31T09:31:33;2.70;;;2.60;;
14377;SDS011;7272;53.668;9.578;2023-07-31T09:34:41;2.70;;;2.60;;
14377;SDS011;7272;53.668;9.578;2023-07-31T09:37:42;2.40;;;2.30;;
14377;SDS011;7272;53.668;9.578;2023-07-31T09:40:45;2.40;;;2.30;;
14377;SDS011;7272;53.668;9.578;2023-07-31T09:43:52;2.27;;;2.17;;
14377;SDS011;7272;53.668;9.578;2023-07-31T09:46:55;2.57;;;2.40;;
14377;SDS011;7272;53.668;9.578;2023-07-31T09:49:56;2.43;;;2.33;;
14377;SDS011;7272;53.668;9.578;2023-07-31T09:52:57;2.80;;;2.70;;
14377;SDS011;7272;53.668;9.578;2023-07-31T09:55:58;2.67;;;2.47;;
14377;SDS011;7272;53.668;9.578;2023-07-31T09:59:00;2.50;;;2.40;;
14377;SDS011;7272;53.668;9.578;2023-07-31T10:02:05;2.10;;;2.00;;
14377;SDS011;7272;53.668;9.578;2023-07-31T10:05:12;2.30;;;2.17;;
14377;SDS011;7272;53.668;9.578;2023-07-31T10:08:15;2.13;;;2.03;;
14377;SDS011;7272;53.668;9.578;2023-07-31T10:11:18;2.78;;;2.58;;
14377;SDS011;7272;53.668;9.578;2023-07-31T10:14:20;2.35;;;2.25;;
14377;SDS011;7272;53.668;9.578;2023-07-31T10:17:25;2.00;;;1.90;;
14377;SDS011;7272;53.668;9.578;2023-07-31T10:20:26;2.00;;;1.90;;
14377;SDS011;7272;53.668;9.578;2023-07-31T10:23:29;2.10;;;1.80;;
14377;SDS011;7272;53.668;9.578;2023-07-31T10:26:31;2.33;;;1.80;;
14377;SDS011;7272;53.668;9.578;2023-07-31T10:29:34;2.00;;;1.90;;
14377;SDS011;7272;53.668;9.578;2023-07-31T10:32:37;5.03;;;1.70;;
14377;SDS011;7272;53.668;9.578;2023-07-31T10:35:41;1.80;;;1.70;;
14377;SDS011;7272;53.668;9.578;2023-07-31T10:38:42;1.67;;;1.60;;
14377;SDS011;7272;53.668;9.578;2023-07-31T10:41:43;1.80;;;1.70;;
14377;SDS011;7272;53.668;9.578;2023-07-31T10:44:46;1.80;;;1.70;;
14377;SDS011;7272;53.668;9.578;2023-07-31T10:47:48;1.60;;;1.50;;
14377;SDS011;7272;53.668;9.578;2023-07-31T10:50:49;1.70;;;1.60;;
14377;SDS011;7272;53.668;9.578;2023-07-31T10:53:51;1.70;;;1.60;;
14377;SDS011;7272;53.668;9.578;2023-07-31T10:57:20;2.00;;;1.90;;
14377;SDS011;7272;53.668;9.578;2023-07-31T11:00:23;1.90;;;1.80;;
14377;SDS011;7272;53.668;9.578;2023-07-31T11:03:29;1.97;;;1.87;;
14377;SDS011;7272;53.668;9.578;2023-07-31T11:06:41;1.80;;;1.70;;
14377;SDS011;7272;53.668;9.578;2023-07-31T11:09:56;2.13;;;1.93;;
14377;SDS011;7272;53.668;9.578;2023-07-31T11:12:57;2.70;;;1.83;;
14377;SDS011;7272;53.668;9.578;2023-07-31T11:15:58;1.60;;;1.57;;
14377;SDS011;7272;53.668;9.578;2023-07-31T11:19:00;2.03;;;1.93;;
14377;SDS011;7272;53.668;9.578;2023-07-31T11:22:02;1.70;;;1.70;;
14377;SDS011;7272;53.668;9.578;2023-07-31T11:25:05;1.50;;;1.50;;
14377;SDS011;7272;53.668;9.578;2023-07-31T11:28:08;1.73;;;1.63;;
14377;SDS011;7272;53.668;9.578;2023-07-31T11:31:10;1.40;;;1.40;;
14377;SDS011;7272;53.668;9.578;2023-07-31T11:34:11;2.17;;;1.80;;
14377;SDS011;7272;53.668;9.578;2023-07-31T11:37:13;1.60;;;1.50;;
14377;SDS011;7272;53.668;9.578;2023-07-31T11:40:14;1.50;;;1.50;;
14377;SDS011;7272;53.668;9.578;2023-07-31T11:43:15;1.80;;;1.70;;
14377;SDS011;7272;53.668;9.578;2023-07-31T11:46:18;3.80;;;1.53;;
14377;SDS011;7272;53.668;9.578;2023-07-31T11:49:20;1.57;;;1.50;;
14377;SDS011;7272;53.668;9.578;2023-07-31T11:52:21;1.90;;;1.80;;
14377;SDS011;7272;53.668;9.578;2023-07-31T11:55:24;2.03;;;1.92;;
14377;SDS011;7272;53.668;9.578;2023-07-31T11:58:26;1.90;;;1.80;;
14377;SDS011;7272;53.668;9.578;2023-07-31T12:01:28;7.73;;;2.17;;
14377;SDS011;7272;53.668;9.578;2023-07-31T12:04:30;1.80;;;1.70;;
14377;SDS011;7272;53.668;9.578;2023-07-31T12:07:42;1.80;;;1.70;;
14377;SDS011;7272;53.668;9.578;2023-07-31T12:10:47;1.77;;;1.70;;
14377;SDS011;7272;53.668;9.578;2023-07-31T12:13:51;1.60;;;1.50;;
14377;SDS011;7272;53.668;9.578;2023-07-31T12:16:55;1.70;;;1.60;;
14377;SDS011;7272;53.668;9.578;2023-07-31T12:19:58;1.80;;;1.70;;
14377;SDS011;7272;53.668;9.578;2023-07-31T12:22:59;1.67;;;1.63;;
14377;SDS011;7272;53.668;9.578;2023-07-31T12:26:00;1.80;;;1.70;;
14377;SDS011;7272;53.668;9.578;2023-07-31T12:29:02;1.80;;;1.70;;
14377;SDS011;7272;53.668;9.578;2023-07-31T12:32:20;2.53;;;1.80;;
14377;SDS011;7272;53.668;9.578;2023-07-31T12:35:22;2.00;;;1.90;;
14377;SDS011;7272;53.668;9.578;2023-07-31T12:38:24;2.33;;;1.90;;
14377;SDS011;7272;53.668;9.578;2023-07-31T12:41:26;2.00;;;1.90;;
14377;SDS011;7272;53.668;9.578;2023-07-31T12:44:27;1.60;;;1.60;;
14377;SDS011;7272;53.668;9.578;2023-07-31T12:47:28;1.83;;;1.70;;
14377;SDS011;7272;53.668;9.578;2023-07-31T12:50:30;1.80;;;1.70;;
14377;SDS011;7272;53.668;9.578;2023-07-31T12:53:31;1.80;;;1.70;;
14377;SDS011;7272;53.668;9.578;2023-07-31T12:56:33;2.25;;;2.15;;
14377;SDS011;7272;53.668;9.578;2023-07-31T12:59:34;2.10;;;2.00;;
14377;SDS011;7272;53.668;9.578;2023-07-31T13:02:35;1.93;;;1.83;;
14377;SDS011;7272;53.668;9.578;2023-07-31T13:05:37;2.10;;;1.90;;
14377;SDS011;7272;53.668;9.578;2023-07-31T13:08:39;1.80;;;1.70;;
14377;SDS011;7272;53.668;9.578;2023-07-31T13:11:40;1.90;;;1.80;;
14377;SDS011;7272;53.668;9.578;2023-07-31T13:14:41;1.90;;;1.80;;
14377;SDS011;7272;53.668;9.578;2023-07-31T13:17:42;2.20;;;2.10;;
14377;SDS011;7272;53.668;9.578;2023-07-31T13:20:44;2.08;;;2.00;;
14377;SDS011;7272;53.668;9.578;2023-07-31T13:23:45;1.87;;;1.77;;
14377;SDS011;7272;53.668;9.578;2023-07-31T13:26:46;2.03;;;1.93;;
14377;SDS011;7272;53.668;9.578;2023-07-31T13:29:47;1.60;;;1.60;;
14377;SDS011;7272;53.668;9.578;2023-07-31T13:32:49;1.77;;;1.70;;
14377;SDS011;7272;53.668;9.578;2023-07-31T13:35:51;1.83;;;1.73;;
14377;SDS011;7272;53.668;9.578;2023-07-31T13:38:52;1.80;;;1.70;;
14377;SDS011;7272;53.668;9.578;2023-07-31T13:41:53;2.10;;;2.00;;
14377;SDS011;7272;53.668;9.578;2023-07-31T13:44:55;2.13;;;1.80;;
14377;SDS011;7272;53.668;9.578;2023-07-31T13:47:57;1.83;;;1.57;;
14377;SDS011;7272;53.668;9.578;2023-07-31T13:50:58;5.00;;;4.60;;
14377;SDS011;7272;53.668;9.578;2023-07-31T13:54:00;2.00;;;1.90;;
14377;SDS011;7272;53.668;9.578;2023-07-31T13:57:02;1.90;;;1.80;;
14377;SDS011;7272;53.668;9.578;2023-07-31T14:00:04;1.87;;;1.80;;
14377;SDS011;7272;53.668;9.578;2023-07-31T14:03:07;2.00;;;1.90;;
14377;SDS011;7272;53.668;9.578;2023-07-31T14:06:08;1.87;;;1.70;;
14377;SDS011;7272;53.668;9.578;2023-07-31T14:09:10;2.00;;;1.73;;
14377;SDS011;7272;53.668;9.578;2023-07-31T14:12:11;1.80;;;1.70;;
14377;SDS011;7272;53.668;9.578;2023-07-31T14:15:12;1.70;;;1.70;;
14377;SDS011;7272;53.668;9.578;2023-07-31T14:18:13;2.17;;;2.08;;
14377;SDS011;7272;53.668;9.578;2023-07-31T14:21:15;2.17;;;2.00;;
14377;SDS011;7272;53.668;9.578;2023-07-31T14:24:16;1.80;;;1.70;;
14377;SDS011;7272;53.668;9.578;2023-07-31T14:27:18;1.60;;;1.60;;
14377;SDS011;7272;53.668;9.578;2023-07-31T14:30:19;1.67;;;1.67;;
14377;SDS011;7272;53.668;9.578;2023-07-31T14:33:20;1.60;;;1.60;;
14377;SDS011;7272;53.668;9.578;2023-07-31T14:36:22;1.60;;;1.60;;
14377;SDS011;7272;53.668;9.578;2023-07-31T14:39:23;1.93;;;1.83;;
14377;SDS011;7272;53.668;9.578;2023-07-31T14:42:25;2.10;;;2.00;;
14377;SDS011;7272;53.668;9.578;2023-07-31T14:45:26;1.90;;;1.80;;
14377;SDS011;7272;53.668;9.578;2023-07-31T14:48:27;2.00;;;1.80;;
14377;SDS011;7272;53.668;9.578;2023-07-31T14:51:30;1.90;;;1.80;;
14377;SDS011;7272;53.668;9.578;2023-07-31T14:54:31;4.43;;;2.40;;
14377;SDS011;7272;53.668;9.578;2023-07-31T14:57:32;2.20;;;2.10;;
14377;SDS011;7272;53.668;9.578;2023-07-31T15:00:34;2.00;;;1.90;;
14377;SDS011;7272;53.668;9.578;2023-07-31T15:03:35;2.00;;;1.90;;
14377;SDS011;7272;53.668;9.578;2023-07-31T15:06:37;2.33;;;2.00;;
14377;SDS011;7272;53.668;9.578;2023-07-31T15:09:38;1.90;;;1.80;;
14377;SDS011;7272;53.668;9.578;2023-07-31T15:12:39;1.87;;;1.80;;
14377;SDS011;7272;53.668;9.578;2023-07-31T15:15:41;1.70;;;1.60;;
14377;SDS011;7272;53.668;9.578;2023-07-31T15:18:42;2.20;;;2.10;;
14377;SDS011;7272;53.668;9.578;2023-07-31T15:21:44;2.25;;;2.15;;
14377;SDS011;7272;53.668;9.578;2023-07-31T15:24:45;2.30;;;1.90;;
14377;SDS011;7272;53.668;9.578;2023-07-31T15:27:46;1.70;;;1.70;;
14377;SDS011;7272;53.668;9.578;2023-07-31T15:30:47;1.60;;;1.60;;
14377;SDS011;7272;53.668;9.578;2023-07-31T15:33:49;1.93;;;1.70;;
14377;SDS011;7272;53.668;9.578;2023-07-31T15:36:50;1.90;;;1.80;;
14377;SDS011;7272;53.668;9.578;2023-07-31T15:39:51;2.25;;;2.15;;
14377;SDS011;7272;53.668;9.578;2023-07-31T15:42:53;2.30;;;2.20;;
14377;SDS011;7272;53.668;9.578;2023-07-31T15:45:54;1.90;;;1.90;;
14377;SDS011;7272;53.668;9.578;2023-07-31T15:48:55;2.00;;;1.90;;
14377;SDS011;7272;53.668;9.578;2023-07-31T15:51:57;2.13;;;2.03;;
14377;SDS011;7272;53.668;9.578;2023-07-31T15:54:58;2.00;;;1.90;;
14377;SDS011;7272;53.668;9.578;2023-07-31T15:57:59;1.87;;;1.80;;
14377;SDS011;7272;53.668;9.578;2023-07-31T16:01:00;2.00;;;1.90;;
14377;SDS011;7272;53.668;9.578;2023-07-31T16:04:01;2.27;;;2.17;;
14377;SDS011;7272;53.668;9.578;2023-07-31T16:07:04;1.80;;;1.70;;
14377;SDS011;7272;53.668;9.578;2023-07-31T16:10:05;1.80;;;1.70;;
14377;SDS011;7272;53.668;9.578;2023-07-31T16:13:08;1.80;;;1.70;;
14377;SDS011;7272;53.668;9.578;2023-07-31T16:16:10;1.90;;;1.90;;
14377;SDS011;7272;53.668;9.578;2023-07-31T16:19:11;1.80;;;1.80;;
14377;SDS011;7272;53.668;9.578;2023-07-31T16:22:13;1.80;;;1.80;;
14377;SDS011;7272;53.668;9.578;2023-07-31T16:25:14;2.20;;;2.10;;
14377;SDS011;7272;53.668;9.578;2023-07-31T16:28:15;2.20;;;2.00;;
14377;SDS011;7272;53.668;9.578;2023-07-31T16:31:17;1.90;;;1.90;;
14377;SDS011;7272;53.668;9.578;2023-07-31T16:34:18;1.70;;;1.70;;
14377;SDS011;7272;53.668;9.578;2023-07-31T16:37:20;1.90;;;1.90;;
14377;SDS011;7272;53.668;9.578;2023-07-31T16:40:21;2.20;;;1.90;;
14377;SDS011;7272;53.668;9.578;2023-07-31T16:43:22;2.08;;;2.00;;
14377;SDS011;7272;53.668;9.578;2023-07-31T16:46:23;2.40;;;2.30;;
14377;SDS011;7272;53.668;9.578;2023-07-31T16:49:24;2.20;;;2.10;;
14377;SDS011;7272;53.668;9.578;2023-07-31T16:52:26;2.17;;;2.07;;
14377;SDS011;7272;53.668;9.578;2023-07-31T16:55:28;2.00;;;1.90;;
14377;SDS011;7272;53.668;9.578;2023-07-31T16:58:30;2.20;;;2.10;;
14377;SDS011;7272;53.668;9.578;2023-07-31T17:01:31;2.00;;;1.90;;
14377;SDS011;7272;53.668;9.578;2023-07-31T17:04:33;2.50;;;2.30;;
14377;SDS011;7272;53.668;9.578;2023-07-31T17:07:35;2.53;;;2.42;;
14377;SDS011;7272;53.668;9.578;2023-07-31T17:10:36;2.10;;;2.00;;
14377;SDS011;7272;53.668;9.578;2023-07-31T17:13:37;1.83;;;1.83;;
14377;SDS011;7272;53.668;9.578;2023-07-31T17:16:38;1.77;;;1.70;;
14377;SDS011;7272;53.668;9.578;2023-07-31T17:19:39;2.10;;;2.00;;
14377;SDS011;7272;53.668;9.578;2023-07-31T17:22:41;1.87;;;1.80;;
14377;SDS011;7272;53.668;9.578;2023-07-31T17:25:44;1.93;;;1.83;;
14377;SDS011;7272;53.668;9.578;2023-07-31T17:28:45;2.42;;;2.33;;
14377;SDS011;7272;53.668;9.578;2023-07-31T17:31:46;2.20;;;2.10;;
14377;SDS011;7272;53.668;9.578;2023-07-31T17:34:48;2.20;;;2.10;;
14377;SDS011;7272;53.668;9.578;2023-07-31T17:37:49;1.80;;;1.80;;
14377;SDS011;7272;53.668;9.578;2023-07-31T17:40:51;2.17;;;2.07;;
14377;SDS011;7272;53.668;9.578;2023-07-31T17:43:52;2.20;;;2.10;;
14377;SDS011;7272;53.668;9.578;2023-07-31T17:46:53;2.45;;;2.35;;
14377;SDS011;7272;53.668;9.578;2023-07-31T17:49:54;2.33;;;2.23;;
14377;SDS011;7272;53.668;9.578;2023-07-31T17:52:57;2.10;;;2.00;;
14377;SDS011;7272;53.668;9.578;2023-07-31T17:55:58;2.37;;;2.27;;
14377;SDS011;7272;53.668;9.578;2023-07-31T17:59:00;2.30;;;2.20;;
14377;SDS011;7272;53.668;9.578;2023-07-31T18:02:01;2.50;;;2.30;;
14377;SDS011;7272;53.668;9.578;2023-07-31T18:05:03;2.67;;;2.55;;
14377;SDS011;7272;53.668;9.578;2023-07-31T18:08:05;2.70;;;2.60;;
14377;SDS011;7272;53.668;9.578;2023-07-31T18:11:06;2.53;;;2.43;;
14377;SDS011;7272;53.668;9.578;2023-07-31T18:14:07;2.30;;;2.20;;
14377;SDS011;7272;53.668;9.578;2023-07-31T18:17:09;2.50;;;2.40;;
14377;SDS011;7272;53.668;9.578;2023-07-31T18:20:11;2.40;;;2.30;;
14377;SDS011;7272;53.668;9.578;2023-07-31T18:23:13;2.50;;;2.30;;
14377;SDS011;7272;53.668;9.578;2023-07-31T18:26:14;2.63;;;2.10;;
14377;SDS011;7272;53.668;9.578;2023-07-31T18:29:15;3.23;;;3.03;;
14377;SDS011;7272;53.668;9.578;2023-07-31T18:32:17;2.53;;;2.43;;
14377;SDS011;7272;53.668;9.578;2023-07-31T18:35:18;2.80;;;2.70;;